Time;durP1;ratioP1;P1;durP2;ratioP2;P2;SDS_P1;SDS_P2;PMS_P1;PMS_P2;Temp;Humidity;BMP_temperature;BMP_pressure;BME280_temperature;BME280_humidity;BME280_pressure;Samples;Min_cycle;Max_cycle;Signal;HPM_P1;HPM_P2
2021/06/18 00:00:35;;;;;;;6.00;3.80;;;24.10;92.90;;;;;;5035907;28;20203;-56
2021/06/18 00:03:01;;;;;;;3.90;3.60;;;24.00;92.40;;;;;;5034932;28;20241;-54
2021/06/18 00:05:26;;;;;;;4.53;3.60;;;23.70;92.20;;;;;;5035653;28;20159;-57
2021/06/18 00:07:53;;;;;;;6.40;3.70;;;23.70;92.10;;;;;;5034967;28;20171;-55
2021/06/18 00:10:22;;;;;;;4.13;3.30;;;23.60;92.20;;;;;;5035781;28;20167;-56
2021/06/18 00:12:48;;;;;;;8.00;3.40;;;23.70;92.10;;;;;;5035662;28;20426;-57
2021/06/18 00:15:14;;;;;;;4.47;4.00;;;23.70;91.80;;;;;;5035391;28;20882;-57
2021/06/18 00:17:40;;;;;;;3.73;3.40;;;23.60;92.10;;;;;;5035318;28;20533;-57
2021/06/18 00:20:08;;;;;;;5.90;3.80;;;23.70;92.30;;;;;;5035300;28;20402;-57
2021/06/18 00:22:34;;;;;;;4.87;3.37;;;23.60;92.60;;;;;;5035049;28;20410;-56
2021/06/18 00:24:59;;;;;;;5.13;3.10;;;23.60;92.70;;;;;;5035562;28;20417;-57
2021/06/18 00:27:26;;;;;;;4.57;3.80;;;23.50;92.50;;;;;;5035207;28;20286;-57
2021/06/18 00:29:52;;;;;;;3.73;3.43;;;23.40;92.50;;;;;;5035386;28;20198;-57
2021/06/18 00:32:18;;;;;;;3.40;3.10;;;23.50;92.60;;;;;;5054954;28;20412;-57
2021/06/18 00:34:44;;;;;;;3.77;2.80;;;23.50;92.40;;;;;;5035408;28;20811;-56
2021/06/18 00:37:10;;;;;;;4.00;3.60;;;23.40;91.90;;;;;;5034294;28;20594;-57
2021/06/18 00:39:35;;;;;;;3.43;3.13;;;23.40;92.40;;;;;;5035231;28;20438;-57
2021/06/18 00:42:02;;;;;;;5.10;3.33;;;23.50;92.50;;;;;;5035175;28;20258;-56
2021/06/18 00:44:28;;;;;;;5.67;3.57;;;23.50;92.40;;;;;;5033804;28;20200;-57
2021/06/18 00:46:54;;;;;;;5.50;3.67;;;23.50;92.50;;;;;;5017057;28;20420;-57
2021/06/18 00:49:21;;;;;;;4.20;3.80;;;23.50;92.70;;;;;;5034742;28;20175;-55
2021/06/18 00:51:47;;;;;;;3.90;3.60;;;23.50;92.50;;;;;;5034738;28;20406;-57
2021/06/18 00:54:13;;;;;;;3.83;3.53;;;23.50;92.90;;;;;;5033528;28;20485;-57
2021/06/18 00:56:41;;;;;;;3.63;3.00;;;23.50;92.80;;;;;;5034773;28;20176;-57
2021/06/18 00:59:06;;;;;;;3.90;3.50;;;23.30;93.20;;;;;;5034794;28;20452;-56
2021/06/18 01:01:32;;;;;;;4.57;3.67;;;23.20;93.10;;;;;;5034864;28;20939;-56
2021/06/18 01:03:58;;;;;;;3.90;3.50;;;23.20;92.90;;;;;;5034748;28;20659;-56
2021/06/18 01:06:30;;;;;;;3.87;3.57;;;23.20;93.00;;;;;;5035004;28;20251;-56
2021/06/18 01:09:03;;;;;;;5.30;4.27;;;23.20;93.50;;;;;;5033987;28;20617;-55
2021/06/18 01:11:45;;;;;;;4.00;3.63;;;23.20;93.60;;;;;;5035019;28;20516;-55
2021/06/18 01:14:26;;;;;;;4.17;3.87;;;23.10;93.30;;;;;;5016752;28;20950;-56
2021/06/18 01:17:06;;;;;;;6.10;3.90;;;23.00;93.70;;;;;;5034806;28;20394;-55
2021/06/18 01:19:51;;;;;;;5.73;3.60;;;22.90;93.70;;;;;;5034976;28;20766;-56
2021/06/18 01:22:20;;;;;;;4.20;3.23;;;22.90;94.00;;;;;;5034713;28;20385;-55
2021/06/18 01:25:02;;;;;;;3.90;3.50;;;22.80;94.10;;;;;;5034048;28;20410;-55
2021/06/18 01:27:51;;;;;;;3.87;3.47;;;22.80;94.20;;;;;;5033113;28;20429;-55
2021/06/18 01:30:20;;;;;;;3.70;3.40;;;22.80;94.20;;;;;;5014832;28;20395;-55
2021/06/18 01:33:01;;;;;;;3.13;2.93;;;22.80;94.10;;;;;;5014700;28;20992;-56
2021/06/18 01:35:35;;;;;;;4.97;3.87;;;22.90;94.10;;;;;;5014635;28;20445;-53
2021/06/18 01:38:05;;;;;;;5.10;4.07;;;22.90;93.70;;;;;;5013932;28;20517;-53
2021/06/18 01:40:31;;;;;;;4.20;3.87;;;22.80;94.30;;;;;;5015354;28;20946;-56
2021/06/18 01:43:00;;;;;;;3.80;3.50;;;22.90;94.40;;;;;;5014418;28;20473;-56
2021/06/18 01:45:27;;;;;;;4.50;4.03;;;22.90;94.50;;;;;;5014616;28;20763;-54
2021/06/18 01:47:55;;;;;;;4.40;4.00;;;22.80;94.50;;;;;;5014310;28;20491;-56
2021/06/18 01:50:22;;;;;;;7.00;3.87;;;22.80;94.60;;;;;;5027811;28;20497;-52
2021/06/18 01:53:10;;;;;;;4.13;3.80;;;22.80;94.60;;;;;;5032562;28;20441;-57
2021/06/18 01:55:38;;;;;;;3.40;3.13;;;22.90;94.80;;;;;;5035268;28;20410;-55
2021/06/18 01:58:05;;;;;;;3.93;3.57;;;22.90;94.90;;;;;;5034500;28;20504;-53
2021/06/18 02:00:33;;;;;;;3.70;3.40;;;22.90;95.00;;;;;;5034243;28;20406;-55
2021/06/18 02:03:04;;;;;;;4.97;3.80;;;22.90;94.80;;;;;;5034280;28;20433;-53
2021/06/18 02:05:33;;;;;;;5.17;3.63;;;22.90;94.80;;;;;;5034643;28;20456;-53
2021/06/18 02:08:00;;;;;;;3.80;3.50;;;22.90;95.10;;;;;;5033673;28;20414;-56
2021/06/18 02:10:26;;;;;;;3.77;3.40;;;22.80;95.30;;;;;;5033534;28;20875;-56
2021/06/18 02:12:54;;;;;;;6.30;4.40;;;22.70;95.70;;;;;;5033444;28;20433;-55
2021/06/18 02:15:21;;;;;;;5.20;4.70;;;22.60;96.20;;;;;;5033227;28;20402;-56
2021/06/18 02:17:49;;;;;;;5.43;4.40;;;22.50;96.20;;;;;;5033335;28;20468;-56
2021/06/18 02:20:15;;;;;;;4.30;3.83;;;22.40;97.00;;;;;;5033705;28;20398;-56
2021/06/18 02:22:45;;;;;;;4.70;3.87;;;22.50;97.00;;;;;;5033088;28;20456;-56
2021/06/18 02:25:12;;;;;;;4.47;4.07;;;22.40;97.10;;;;;;5034018;28;20417;-52
2021/06/18 02:27:40;;;;;;;4.97;3.80;;;22.30;97.30;;;;;;5033235;28;20402;-56
2021/06/18 02:30:07;;;;;;;3.90;3.60;;;22.20;97.60;;;;;;5033403;28;20402;-55
2021/06/18 02:32:34;;;;;;;4.13;3.83;;;22.30;97.80;;;;;;5033156;28;20528;-55
2021/06/18 02:35:00;;;;;;;5.10;4.60;;;22.30;97.80;;;;;;5032760;28;20406;-56
2021/06/18 02:37:26;;;;;;;5.00;4.60;;;22.30;97.60;;;;;;5032974;28;20405;-56
2021/06/18 02:39:52;;;;;;;4.47;4.17;;;22.40;98.00;;;;;;5033445;28;20930;-55
2021/06/18 02:42:17;;;;;;;4.57;4.17;;;22.40;98.00;;;;;;5033434;28;20665;-55
2021/06/18 02:44:43;;;;;;;8.50;4.10;;;22.50;98.10;;;;;;5032846;28;20574;-56
2021/06/18 02:47:23;;;;;;;6.97;4.00;;;22.40;98.30;;;;;;5033550;28;20690;-56
2021/06/18 02:49:48;;;;;;;4.60;4.20;;;22.40;98.50;;;;;;5033639;28;20512;-56
2021/06/18 02:52:31;;;;;;;7.90;4.37;;;22.30;98.80;;;;;;5033122;28;20402;-55
2021/06/18 02:55:15;;;;;;;4.70;4.30;;;22.40;98.80;;;;;;5062104;23;20229;-56
2021/06/18 02:57:55;;;;;;;4.60;4.30;;;22.30;98.90;;;;;;5053062;28;20431;-57
2021/06/18 03:00:23;;;;;;;5.13;4.73;;;22.40;98.90;;;;;;5052837;28;20476;-57
2021/06/18 03:03:09;;;;;;;5.43;4.37;;;22.40;99.00;;;;;;5053058;28;20393;-57
2021/06/18 03:05:35;;;;;;;5.17;4.67;;;22.50;98.90;;;;;;5033043;28;20444;-57
2021/06/18 03:08:03;;;;;;;7.30;4.90;;;22.40;99.00;;;;;;5032504;28;20845;-56
2021/06/18 03:10:36;;;;;;;6.50;6.00;;;22.50;99.20;;;;;;5032907;28;20171;-53
2021/06/18 03:13:09;;;;;;;6.53;5.93;;;22.30;99.90;;;;;;5033258;28;20390;-55
2021/06/18 03:15:40;;;;;;;7.00;6.40;;;22.20;99.90;;;;;;5032617;28;20387;-55
2021/06/18 03:18:07;;;;;;;6.87;6.27;;;22.10;99.90;;;;;;5033445;28;20440;-55
2021/06/18 03:20:36;;;;;;;6.27;5.80;;;22.20;99.90;;;;;;5033147;28;20401;-57
2021/06/18 03:23:03;;;;;;;6.87;6.03;;;22.20;99.90;;;;;;5032364;28;20407;-57
2021/06/18 03:25:34;;;;;;;5.90;5.40;;;22.30;99.90;;;;;;5032924;28;20846;-55
2021/06/18 03:28:00;;;;;;;6.93;6.33;;;22.50;99.90;;;;;;5032739;28;20438;-51
2021/06/18 03:30:27;;;;;;;6.47;5.87;;;22.50;99.90;;;;;;5032445;28;20405;-57
2021/06/18 03:32:53;;;;;;;9.00;6.37;;;22.50;99.90;;;;;;5015572;28;20451;-54
2021/06/18 03:35:21;;;;;;;5.70;5.20;;;22.40;99.90;;;;;;5032605;28;20405;-52
2021/06/18 03:37:48;;;;;;;6.33;5.83;;;22.30;99.90;;;;;;5032238;28;20488;-52
2021/06/18 03:40:14;;;;;;;5.80;5.30;;;22.30;99.90;;;;;;5032454;28;20409;-55
2021/06/18 03:42:40;;;;;;;6.73;6.13;;;22.20;99.90;;;;;;5032708;28;20774;-56
2021/06/18 03:45:08;;;;;;;5.77;5.27;;;22.10;99.90;;;;;;5032123;28;20432;-56
2021/06/18 03:47:34;;;;;;;5.70;4.80;;;22.10;99.90;;;;;;5034381;28;20540;-55
2021/06/18 03:50:01;;;;;;;6.10;5.13;;;22.00;99.90;;;;;;5036211;28;20929;-56
2021/06/18 03:52:27;;;;;;;6.40;5.20;;;22.10;99.90;;;;;;5035888;28;20416;-56
2021/06/18 03:54:52;;;;;;;6.00;5.50;;;22.20;99.90;;;;;;5035710;28;20887;-56
2021/06/18 03:57:20;;;;;;;6.93;6.20;;;22.30;99.90;;;;;;5035853;28;20510;-55
2021/06/18 03:59:46;;;;;;;5.67;5.13;;;22.20;99.90;;;;;;5017405;28;20171;-54
2021/06/18 04:02:15;;;;;;;5.63;5.13;;;22.30;99.90;;;;;;5034858;28;20464;-56
2021/06/18 04:04:43;;;;;;;6.87;5.17;;;22.30;99.90;;;;;;5035829;28;20414;-56
2021/06/18 04:07:10;;;;;;;7.37;6.60;;;22.20;99.90;;;;;;5035833;28;20887;-55
2021/06/18 04:09:37;;;;;;;6.00;5.50;;;22.20;99.90;;;;;;5035501;28;20452;-56
2021/06/18 04:12:06;;;;;;;5.83;5.33;;;22.30;99.90;;;;;;5035810;28;20757;-55
2021/06/18 04:14:32;;;;;;;6.57;5.97;;;22.30;99.90;;;;;;5034567;28;20528;-55
2021/06/18 04:16:58;;;;;;;6.63;5.90;;;22.30;99.90;;;;;;5035261;28;20483;-55
2021/06/18 04:19:25;;;;;;;5.73;5.23;;;22.10;99.90;;;;;;5034045;28;20433;-55
2021/06/18 04:21:52;;;;;;;5.50;4.90;;;22.20;99.90;;;;;;5035562;28;20528;-56
2021/06/18 04:24:18;;;;;;;5.80;5.30;;;22.40;99.90;;;;;;5034770;28;20446;-56
2021/06/18 04:26:44;;;;;;;5.50;5.00;;;22.50;99.90;;;;;;5035582;28;20497;-56
2021/06/18 04:29:11;;;;;;;5.83;5.27;;;22.70;99.90;;;;;;5035124;28;20195;-55
2021/06/18 04:31:37;;;;;;;6.27;5.67;;;22.80;99.90;;;;;;5035424;28;20405;-55
2021/06/18 04:34:07;;;;;;;5.97;5.47;;;22.80;99.90;;;;;;5034809;28;20417;-56
2021/06/18 04:36:35;;;;;;;5.13;4.73;;;22.70;99.90;;;;;;5017392;28;20426;-56
2021/06/18 04:39:02;;;;;;;6.50;5.90;;;22.70;99.90;;;;;;5035883;28;20560;-57
2021/06/18 04:41:28;;;;;;;6.00;5.50;;;22.70;99.90;;;;;;5035396;28;20409;-57
2021/06/18 04:43:53;;;;;;;6.10;5.60;;;22.60;99.90;;;;;;5034795;28;20434;-53
2021/06/18 04:46:19;;;;;;;6.23;5.73;;;22.60;99.90;;;;;;5036173;28;20171;-56
2021/06/18 04:48:45;;;;;;;6.60;6.00;;;22.70;99.90;;;;;;5033880;28;20668;-56
2021/06/18 04:51:10;;;;;;;7.47;5.83;;;22.60;99.90;;;;;;5034777;28;20164;-57
2021/06/18 04:53:36;;;;;;;5.90;5.40;;;22.70;99.90;;;;;;5034704;28;20745;-55
2021/06/18 04:56:03;;;;;;;6.57;5.97;;;22.80;99.90;;;;;;5034779;28;20170;-55
2021/06/18 04:58:29;;;;;;;7.10;6.50;;;22.90;99.90;;;;;;5033412;28;20176;-56
2021/06/18 05:00:55;;;;;;;6.00;5.53;;;23.00;99.90;;;;;;5034622;28;20414;-51
2021/06/18 05:03:21;;;;;;;6.20;5.60;;;23.10;99.90;;;;;;5034023;28;20476;-56
2021/06/18 05:05:46;;;;;;;6.90;6.27;;;23.30;99.90;;;;;;5034781;28;20263;-57
2021/06/18 05:08:12;;;;;;;7.03;6.43;;;23.30;99.90;;;;;;5032940;28;20229;-53
2021/06/18 05:10:38;;;;;;;5.50;5.00;;;23.40;99.90;;;;;;5034255;28;20667;-57
2021/06/18 05:13:03;;;;;;;7.80;7.20;;;23.40;99.90;;;;;;5034209;28;20186;-57
2021/06/18 05:15:29;;;;;;;7.53;6.10;;;23.50;99.90;;;;;;5034685;28;20168;-57
2021/06/18 05:17:54;;;;;;;6.73;6.17;;;23.60;99.90;;;;;;5034304;28;20175;-56
2021/06/18 05:20:20;;;;;;;6.43;5.93;;;23.70;99.90;;;;;;5034105;28;20262;-57
2021/06/18 05:22:45;;;;;;;6.40;5.90;;;23.80;99.90;;;;;;5034052;28;20220;-56
2021/06/18 05:25:12;;;;;;;6.83;5.97;;;23.90;99.90;;;;;;5033880;28;20219;-58
2021/06/18 05:27:37;;;;;;;6.40;5.90;;;24.10;99.90;;;;;;5033985;28;20207;-57
2021/06/18 05:30:05;;;;;;;6.87;6.23;;;24.20;99.90;;;;;;5034005;28;20899;-58
2021/06/18 05:32:31;;;;;;;6.70;6.10;;;24.30;99.90;;;;;;5033806;28;20700;-57
2021/06/18 05:34:57;;;;;;;6.57;5.93;;;24.50;99.90;;;;;;5033648;28;20503;-57
2021/06/18 05:37:23;;;;;;;6.10;5.63;;;24.60;99.90;;;;;;5033829;28;20163;-56
2021/06/18 05:39:49;;;;;;;6.97;6.27;;;24.60;99.90;;;;;;5033357;28;20300;-57
2021/06/18 05:42:14;;;;;;;6.40;5.73;;;24.80;99.90;;;;;;5033865;28;20432;-58
2021/06/18 05:44:40;;;;;;;6.07;5.67;;;24.90;99.90;;;;;;5033504;28;20187;-58
2021/06/18 05:47:06;;;;;;;6.10;5.60;;;25.00;99.90;;;;;;5033844;28;20237;-58
2021/06/18 05:49:31;;;;;;;5.83;5.30;;;25.10;99.90;;;;;;5033446;28;20198;-58
2021/06/18 05:51:57;;;;;;;5.90;5.40;;;25.20;99.90;;;;;;5033596;28;20171;-58
2021/06/18 05:54:25;;;;;;;5.60;5.10;;;25.30;99.90;;;;;;5032585;28;20610;-56
2021/06/18 05:56:51;;;;;;;6.30;5.70;;;25.50;99.90;;;;;;5033751;28;20182;-58
2021/06/18 05:59:17;;;;;;;6.00;5.50;;;25.70;99.90;;;;;;5033627;28;20518;-54
2021/06/18 06:01:42;;;;;;;6.37;5.40;;;25.70;99.40;;;;;;5033256;28;21106;-55
2021/06/18 06:04:08;;;;;;;7.07;5.30;;;26.00;99.40;;;;;;5033285;28;20245;-57
2021/06/18 06:06:33;;;;;;;5.30;4.90;;;26.10;99.80;;;;;;5015456;28;20194;-56
2021/06/18 06:08:59;;;;;;;5.47;5.03;;;26.30;99.60;;;;;;5032607;28;20191;-57
2021/06/18 06:11:26;;;;;;;5.97;5.37;;;26.40;99.10;;;;;;5033498;28;20175;-57
2021/06/18 06:13:59;;;;;;;5.80;5.30;;;26.50;99.30;;;;;;5033336;28;20191;-57
2021/06/18 06:16:25;;;;;;;5.87;5.27;;;26.50;98.70;;;;;;5033369;28;20405;-57
2021/06/18 06:18:50;;;;;;;7.30;5.00;;;26.70;98.50;;;;;;5033091;28;20402;-57
2021/06/18 06:21:18;;;;;;;5.63;5.13;;;26.80;98.30;;;;;;5033276;28;20402;-56
2021/06/18 06:23:44;;;;;;;5.50;5.00;;;26.90;97.80;;;;;;5032701;28;20277;-56
2021/06/18 06:26:10;;;;;;;5.90;5.40;;;27.00;98.80;;;;;;5033114;28;20402;-57
2021/06/18 06:28:36;;;;;;;5.37;4.90;;;27.00;98.40;;;;;;5032927;28;20441;-58
2021/06/18 06:31:03;;;;;;;5.40;5.00;;;27.00;96.50;;;;;;5032996;28;20414;-58
2021/06/18 06:33:28;;;;;;;5.57;5.07;;;27.00;97.50;;;;;;5033696;28;20929;-57
2021/06/18 06:35:54;;;;;;;6.20;4.73;;;27.10;97.60;;;;;;5032966;28;20448;-53
2021/06/18 06:38:20;;;;;;;5.70;5.20;;;27.20;97.90;;;;;;5032339;28;20635;-54
2021/06/18 06:40:47;;;;;;;5.03;4.60;;;27.20;96.60;;;;;;5032894;28;20166;-56
2021/06/18 06:43:13;;;;;;;7.20;4.97;;;27.30;97.10;;;;;;5032947;28;20167;-56
2021/06/18 06:45:39;;;;;;;6.10;5.60;;;27.40;97.50;;;;;;5032618;28;20413;-57
2021/06/18 06:48:05;;;;;;;6.80;5.43;;;27.50;96.50;;;;;;5032535;28;20272;-54
2021/06/18 06:50:30;;;;;;;5.30;4.90;;;27.70;96.10;;;;;;5033120;28;20624;-55
2021/06/18 06:52:56;;;;;;;6.33;4.90;;;27.70;96.20;;;;;;5032456;28;20413;-58
2021/06/18 06:55:21;;;;;;;6.97;5.77;;;27.80;95.80;;;;;;5032419;28;20193;-58
2021/06/18 06:57:47;;;;;;;5.73;5.23;;;27.90;95.20;;;;;;5032985;28;20182;-57
2021/06/18 07:00:13;;;;;;;7.03;6.13;;;27.90;95.70;;;;;;5032884;28;20183;-58
2021/06/18 07:02:39;;;;;;;5.83;5.13;;;27.80;95.60;;;;;;5032856;28;20183;-57
2021/06/18 07:05:05;;;;;;;7.13;5.30;;;27.80;95.90;;;;;;5032658;28;20831;-57
2021/06/18 07:07:31;;;;;;;6.07;5.30;;;27.90;95.60;;;;;;5032643;28;20179;-57
2021/06/18 07:09:57;;;;;;;7.50;6.20;;;28.00;95.40;;;;;;5032548;28;20414;-52
2021/06/18 07:12:22;;;;;;;7.07;5.77;;;27.90;95.40;;;;;;5031672;28;20636;-58
2021/06/18 07:14:49;;;;;;;6.30;5.70;;;28.00;94.70;;;;;;5032681;28;20241;-56
2021/06/18 07:17:14;;;;;;;5.70;5.10;;;28.10;95.20;;;;;;5032992;28;20171;-57
2021/06/18 07:19:40;;;;;;;6.60;5.53;;;28.10;93.80;;;;;;5032951;28;20805;-55
2021/06/18 07:22:07;;;;;;;6.10;5.60;;;28.30;93.90;;;;;;5034153;28;20199;-58
2021/06/18 07:24:33;;;;;;;9.87;6.33;;;28.50;94.30;;;;;;5035942;28;20660;-55
2021/06/18 07:26:58;;;;;;;7.20;5.40;;;28.40;93.40;;;;;;5036495;28;20452;-57
2021/06/18 07:29:26;;;;;;;8.07;5.70;;;28.10;93.20;;;;;;5036461;28;20195;-57
2021/06/18 07:31:52;;;;;;;5.37;4.87;;;28.10;93.20;;;;;;5036550;28;20194;-58
2021/06/18 07:34:18;;;;;;;6.23;5.13;;;28.30;92.90;;;;;;5036265;28;20783;-58
2021/06/18 07:36:43;;;;;;;6.00;5.43;;;28.30;92.50;;;;;;5036206;28;20548;-58
2021/06/18 07:39:09;;;;;;;9.97;5.23;;;28.30;92.60;;;;;;5035512;28;20183;-57
2021/06/18 07:41:37;;;;;;;5.50;5.10;;;28.30;93.30;;;;;;5035833;28;20245;-58
2021/06/18 07:44:03;;;;;;;5.87;5.37;;;28.30;93.60;;;;;;5036163;28;20623;-57
2021/06/18 07:46:29;;;;;;;6.70;6.00;;;28.20;94.10;;;;;;5018237;28;20471;-56
2021/06/18 07:48:55;;;;;;;7.23;6.40;;;28.30;94.10;;;;;;5036083;28;20453;-58
2021/06/18 07:51:20;;;;;;;6.97;6.37;;;28.20;94.40;;;;;;5035803;28;20166;-58
2021/06/18 07:53:46;;;;;;;6.23;5.63;;;28.30;94.30;;;;;;5035274;28;20207;-57
2021/06/18 07:56:12;;;;;;;7.10;5.07;;;28.50;93.70;;;;;;5035908;28;20183;-57
2021/06/18 07:58:39;;;;;;;7.00;6.30;;;28.50;93.90;;;;;;5036011;28;20175;-57
2021/06/18 08:01:05;;;;;;;6.37;5.60;;;28.40;94.10;;;;;;5036138;28;20432;-57
2021/06/18 08:03:31;;;;;;;6.80;6.17;;;28.40;93.70;;;;;;5034952;28;20430;-56
2021/06/18 08:05:56;;;;;;;6.73;6.13;;;28.50;94.20;;;;;;5035815;28;20781;-58
2021/06/18 08:08:22;;;;;;;6.50;5.90;;;28.50;94.30;;;;;;5035590;28;20198;-57
2021/06/18 08:10:48;;;;;;;6.63;6.00;;;28.40;94.30;;;;;;5035136;28;20650;-58
2021/06/18 08:13:13;;;;;;;5.50;5.10;;;28.40;94.50;;;;;;5035270;28;20168;-56
2021/06/18 08:15:39;;;;;;;7.97;6.40;;;28.70;94.70;;;;;;5035486;28;20167;-58
2021/06/18 08:18:05;;;;;;;7.20;6.67;;;28.80;94.80;;;;;;5035407;28;20217;-57
2021/06/18 08:20:30;;;;;;;9.60;6.43;;;28.80;94.20;;;;;;5035646;28;20250;-58
2021/06/18 08:22:58;;;;;;;6.87;6.20;;;28.70;93.80;;;;;;5035224;28;20667;-57
2021/06/18 08:25:24;;;;;;;9.50;7.00;;;28.70;94.30;;;;;;5035261;28;20176;-58
2021/06/18 08:27:50;;;;;;;7.13;6.53;;;28.60;94.30;;;;;;5035505;28;20926;-57
2021/06/18 08:30:16;;;;;;;6.50;5.90;;;28.60;94.10;;;;;;5035351;28;20686;-56
2021/06/18 08:32:42;;;;;;;7.87;7.17;;;28.60;94.00;;;;;;5034040;28;20406;-57
2021/06/18 08:35:09;;;;;;;8.73;6.50;;;28.80;94.60;;;;;;5034530;28;20437;-58
2021/06/18 08:37:34;;;;;;;9.37;7.23;;;28.90;93.20;;;;;;5035126;28;20242;-57
2021/06/18 08:40:00;;;;;;;6.77;6.17;;;29.00;93.20;;;;;;5034616;28;20441;-54
2021/06/18 08:42:26;;;;;;;7.87;7.23;;;28.90;93.60;;;;;;5017110;28;20263;-57
2021/06/18 08:44:52;;;;;;;8.87;7.43;;;29.10;93.50;;;;;;5034799;28;20194;-58
2021/06/18 08:47:18;;;;;;;7.50;6.80;;;29.20;92.90;;;;;;5034497;28;20395;-58
2021/06/18 08:49:43;;;;;;;7.90;7.13;;;29.30;92.30;;;;;;5034726;28;20309;-57
2021/06/18 08:52:09;;;;;;;9.60;6.50;;;29.50;92.10;;;;;;5034800;28;20213;-57
2021/06/18 08:54:42;;;;;;;10.13;7.33;;;29.60;92.10;;;;;;5066134;22;20214;-56
2021/06/18 08:57:14;;;;;;;7.63;6.77;;;29.80;91.60;;;;;;5054758;28;20378;-57
2021/06/18 08:59:40;;;;;;;7.73;7.03;;;29.90;91.60;;;;;;5054910;28;20397;-57
2021/06/18 09:02:06;;;;;;;8.20;7.40;;;29.80;91.90;;;;;;5054321;28;20451;-57
2021/06/18 09:04:32;;;;;;;11.00;7.30;;;29.60;92.40;;;;;;5054574;28;20417;-57
2021/06/18 09:06:59;;;;;;;7.43;6.80;;;29.70;92.90;;;;;;5054422;28;20454;-57
2021/06/18 09:09:27;;;;;;;7.90;7.10;;;29.80;92.90;;;;;;5053453;28;20585;-57
2021/06/18 09:11:56;;;;;;;8.27;7.47;;;29.70;92.90;;;;;;5054075;28;20748;-57
2021/06/18 09:14:30;;;;;;;8.60;7.80;;;29.70;92.80;;;;;;5054326;28;20444;-57
2021/06/18 09:17:19;;;;;;;9.07;8.27;;;29.90;92.90;;;;;;5054214;28;20439;-57
2021/06/18 09:19:53;;;;;;;7.97;7.07;;;30.10;92.60;;;;;;5054502;28;20385;-57
2021/06/18 09:22:24;;;;;;;7.53;6.90;;;30.30;92.00;;;;;;5054856;28;20492;-57
2021/06/18 09:25:00;;;;;;;7.93;7.13;;;30.30;91.40;;;;;;5053559;28;20914;-57
2021/06/18 09:27:37;;;;;;;8.23;7.40;;;30.20;92.40;;;;;;5035753;28;20447;-57
2021/06/18 09:30:30;;;;;;;8.57;7.73;;;30.20;91.10;;;;;;5053908;28;20410;-57
2021/06/18 09:33:09;;;;;;;7.50;6.90;;;30.40;91.10;;;;;;5053982;28;20381;-56
2021/06/18 09:35:34;;;;;;;7.93;7.13;;;30.50;91.10;;;;;;5054364;28;20423;-57
2021/06/18 09:38:07;;;;;;;8.63;7.83;;;30.40;91.70;;;;;;5054280;28;20783;-57
2021/06/18 09:40:32;;;;;;;8.20;7.50;;;30.50;91.00;;;;;;5053997;28;20528;-57
2021/06/18 09:43:11;;;;;;;8.00;7.40;;;30.50;91.00;;;;;;5054080;28;20406;-57
2021/06/18 09:45:39;;;;;;;8.20;7.60;;;30.60;91.10;;;;;;5035449;28;20189;-57
2021/06/18 09:48:09;;;;;;;8.37;7.50;;;30.70;91.00;;;;;;5053809;28;20518;-57
2021/06/18 09:50:38;;;;;;;8.17;7.57;;;30.80;90.40;;;;;;5053717;28;20401;-58
2021/06/18 09:53:11;;;;;;;7.40;6.73;;;31.00;90.50;;;;;;5054232;28;20412;-56
2021/06/18 09:55:37;;;;;;;7.43;6.83;;;31.20;88.60;;;;;;5053305;28;20483;-57
2021/06/18 09:58:03;;;;;;;8.63;7.73;;;31.20;90.20;;;;;;5053954;28;20810;-57
2021/06/18 10:00:29;;;;;;;8.53;7.43;;;31.40;87.80;;;;;;5053902;28;20198;-58
2021/06/18 10:02:56;;;;;;;7.60;7.00;;;31.50;86.50;;;;;;5053588;28;20420;-58
2021/06/18 10:05:34;;;;;;;7.90;7.23;;;31.40;86.60;;;;;;5052528;28;20202;-58
2021/06/18 10:08:00;;;;;;;9.80;8.40;;;31.50;87.50;;;;;;5053209;28;20448;-58
2021/06/18 10:10:29;;;;;;;8.97;7.00;;;31.60;85.00;;;;;;5052412;28;20471;-60
2021/06/18 10:12:56;;;;;;;9.63;7.10;;;31.80;85.40;;;;;;5053581;28;20524;-59
2021/06/18 10:15:24;;;;;;;7.23;6.53;;;31.90;81.30;;;;;;5053292;28;20417;-59
2021/06/18 10:17:51;;;;;;;8.27;6.60;;;31.80;81.50;;;;;;5053600;28;20470;-59
2021/06/18 10:20:22;;;;;;;7.37;6.77;;;31.70;81.90;;;;;;5053433;28;20917;-59
2021/06/18 10:23:06;;;;;;;8.13;6.73;;;31.70;80.70;;;;;;5053740;28;20477;-60
2021/06/18 10:25:34;;;;;;;6.13;5.53;;;31.70;78.60;;;;;;5053093;28;20807;-59
2021/06/18 10:28:08;;;;;;;7.60;6.20;;;31.80;76.80;;;;;;5053296;28;20445;-60
2021/06/18 10:30:46;;;;;;;5.70;5.20;;;31.90;75.90;;;;;;5053707;28;20935;-59
2021/06/18 10:33:27;;;;;;;6.50;5.90;;;31.90;72.90;;;;;;5051348;28;20446;-60
2021/06/18 10:35:58;;;;;;;6.77;6.07;;;32.20;75.30;;;;;;5052930;28;20428;-60
2021/06/18 10:38:31;;;;;;;6.10;5.60;;;32.60;75.90;;;;;;5052334;28;20428;-60
2021/06/18 10:41:01;;;;;;;7.77;7.03;;;32.60;77.10;;;;;;5052680;28;20393;-59
2021/06/18 10:43:35;;;;;;;8.40;7.00;;;32.50;76.60;;;;;;5053051;28;20413;-60
2021/06/18 10:46:05;;;;;;;10.80;6.47;;;32.70;75.60;;;;;;5052814;28;20431;-59
2021/06/18 10:48:52;;;;;;;7.27;5.97;;;32.80;74.60;;;;;;5052701;28;20983;-60
2021/06/18 10:51:30;;;;;;;6.87;6.17;;;33.10;75.20;;;;;;5053025;28;20480;-60
2021/06/18 10:54:04;;;;;;;6.10;5.60;;;33.20;74.80;;;;;;5052285;28;20440;-59
2021/06/18 10:56:44;;;;;;;7.13;6.30;;;33.10;67.60;;;;;;5053574;28;20388;-60
2021/06/18 10:59:11;;;;;;;6.37;5.77;;;32.70;68.90;;;;;;5057386;28;20827;-60
2021/06/18 11:01:37;;;;;;;5.67;5.27;;;32.70;68.60;;;;;;5057510;28;20404;-60
2021/06/18 11:04:04;;;;;;;7.20;5.27;;;32.80;69.90;;;;;;5057135;28;20452;-60
2021/06/18 11:06:45;;;;;;;6.00;5.60;;;33.00;71.20;;;;;;5057229;28;20409;-59
2021/06/18 11:09:12;;;;;;;5.13;4.67;;;33.30;71.30;;;;;;5056576;28;20456;-59
2021/06/18 11:11:38;;;;;;;6.17;4.90;;;33.50;66.10;;;;;;5057017;28;20401;-60
2021/06/18 11:14:06;;;;;;;6.73;6.10;;;33.40;65.00;;;;;;5057038;28;20457;-58
2021/06/18 11:16:42;;;;;;;5.90;5.40;;;33.10;67.30;;;;;;5056660;28;20397;-59
2021/06/18 11:19:24;;;;;;;7.23;6.63;;;33.00;69.50;;;;;;5056790;28;20843;-59
2021/06/18 11:21:50;;;;;;;6.67;5.80;;;33.60;71.40;;;;;;5057163;28;20389;-59
2021/06/18 11:24:39;;;;;;;6.87;6.37;;;33.70;68.40;;;;;;5056079;28;20433;-58
2021/06/18 11:27:28;;;;;;;6.30;5.70;;;33.80;69.50;;;;;;5056937;28;20405;-56
2021/06/18 11:30:39;;;;;;;3.87;3.53;;;34.20;64.50;;;;;;5056753;28;20459;-60
2021/06/18 11:33:04;;;;;;;3.53;3.33;;;34.30;55.80;;;;;;5052343;28;20459;-60
2021/06/18 11:35:33;;;;;;;2.80;2.60;;;35.90;53.10;;;;;;5056346;28;20420;-60
2021/06/18 11:38:20;;;;;;;2.83;2.63;;;37.20;43.20;;;;;;5055882;28;20181;-60
2021/06/18 11:40:57;;;;;;;5.00;3.47;;;38.50;44.20;;;;;;5055858;28;20949;-58
2021/06/18 11:43:27;;;;;;;3.53;3.23;;;38.90;43.40;;;;;;5056179;28;20384;-59
2021/06/18 11:45:53;;;;;;;3.73;3.43;;;39.50;45.30;;;;;;5055976;28;20516;-59
2021/06/18 11:48:19;;;;;;;4.40;3.70;;;40.40;40.60;;;;;;5056002;28;20452;-59
2021/06/18 11:50:46;;;;;;;4.37;3.97;;;40.90;40.00;;;;;;5056214;28;20916;-59
2021/06/18 11:53:13;;;;;;;4.80;4.40;;;40.70;40.10;;;;;;5056193;28;20257;-59
2021/06/18 11:55:40;;;;;;;5.30;4.00;;;39.30;43.70;;;;;;5055564;28;20468;-59
2021/06/18 11:58:06;;;;;;;5.40;4.40;;;39.60;41.40;;;;;;5056171;28;20444;-59
2021/06/18 12:00:34;;;;;;;4.23;3.90;;;40.10;41.90;;;;;;5055823;28;20443;-59
2021/06/18 12:03:01;;;;;;;9.20;3.90;;;41.50;40.10;;;;;;5055443;28;20166;-59
2021/06/18 12:05:32;;;;;;;7.77;4.17;;;41.40;39.70;;;;;;5055448;28;20776;-59
2021/06/18 12:07:59;;;;;;;4.70;3.70;;;40.00;40.40;;;;;;5055445;28;20483;-59
2021/06/18 12:10:29;;;;;;;5.27;4.13;;;39.70;40.10;;;;;;5055120;28;20414;-59
2021/06/18 12:13:00;;;;;;;3.90;3.70;;;40.90;39.10;;;;;;5055201;28;20459;-59
2021/06/18 12:15:27;;;;;;;4.77;3.57;;;40.50;38.80;;;;;;5055286;28;20960;-59
2021/06/18 12:18:01;;;;;;;5.03;4.00;;;40.20;38.40;;;;;;5055233;28;20415;-59
2021/06/18 12:20:40;;;;;;;5.30;4.43;;;39.70;39.90;;;;;;5056166;28;20372;-59
2021/06/18 12:23:11;;;;;;;5.60;3.50;;;38.90;40.10;;;;;;5055950;28;20400;-57
2021/06/18 12:25:37;;;;;;;4.17;3.80;;;39.40;40.70;;;;;;5055222;28;20435;-58
2021/06/18 12:28:03;;;;;;;3.97;3.67;;;40.40;39.80;;;;;;5054827;28;20543;-57
2021/06/18 12:30:34;;;;;;;5.27;4.77;;;40.50;38.50;;;;;;5055568;28;20174;-57
2021/06/18 12:33:02;;;;;;;4.97;3.87;;;39.70;40.30;;;;;;5055633;28;20458;-58
2021/06/18 12:35:37;;;;;;;5.93;4.10;;;40.40;39.70;;;;;;5055452;28;20428;-58
2021/06/18 12:38:05;;;;;;;4.70;4.30;;;41.00;39.90;;;;;;5055056;28;20412;-58
2021/06/18 12:40:32;;;;;;;6.20;3.97;;;41.50;38.10;;;;;;5054901;28;20440;-58
2021/06/18 12:43:05;;;;;;;4.10;3.77;;;41.10;38.30;;;;;;5054775;28;20992;-59
2021/06/18 12:45:32;;;;;;;3.80;3.40;;;42.20;38.10;;;;;;5055308;28;20447;-56
2021/06/18 12:48:21;;;;;;;3.20;3.00;;;43.30;35.00;;;;;;5054820;28;20479;-58
2021/06/18 12:50:57;;;;;;;4.20;3.77;;;43.30;35.50;;;;;;5055145;28;20806;-59
2021/06/18 12:53:39;;;;;;;5.30;3.60;;;43.60;34.90;;;;;;5055237;28;20407;-57